Parkrose, Oregon
Current Conditions -  °F | °C
As of 4:53 AM on Friday 19 Dec 2014 (Local Time) from KTTD Reporting Station
Overcast Overcast  
Wind Chill: 44°   Ceiling: 7000
Heat Index: 44°   Visibility: 10mi
Dew Point: 41°   Wind: 0mph
Humidity: 89%   Direction: NA
Pressure: 29.92"   Gusts: NA
Location:  45.5423°N, 122.5°W
Report Text: KTTD 191253Z AUTO 00000KT 10SM SCT048 OVC070 07/05 A2992 RMK AO2 RAB09E40 SLP131 P0000 T00670050
Loading
Personal Weather Stations






























Interactive Weather Map New forecast layout! Learn more

10-Day Weather Forecast

Advertisements
Track Severe Weather on mobile